Terminal Aerodrome Forecast
Issued by NWS Omaha/Valley, NE

Home | Current Version | Previous Version | Text Only | Print | Product List | Glossary Off
Versions: 1 2 3 4 5 6 7 8 9 10 11 12 13 14 15 16 17

000
FTUS43 KOAX 242227 AAA
TAFOFK
TAF AMD
KOFK 242227Z 2422/2518 35010KT P6SM SCT100 BKN150
     FM250100 02008KT P6SM SCT150 BKN250
     FM250400 VRB03KT P6SM SCT250
     FM251500 16007KT P6SM FEW250=

USA.gov is the U.S. government's official web portal to all federal, state and local government web resources and services.